createdAt,value
2023-01-17T00:00:06.501Z,98002.13
2023-01-17T00:03:13.847Z,98011.25
2023-01-17T00:06:47.076Z,98004.75
2023-01-17T00:10:21.573Z,98015.91
2023-01-17T00:13:24.639Z,98005.44
2023-01-17T00:16:38.613Z,97998.75
2023-01-17T00:20:09.691Z,97985.81
2023-01-17T00:23:40.524Z,97987.44
2023-01-17T00:27:03.381Z,98008.81
2023-01-17T00:30:19.915Z,97995.81
2023-01-17T00:33:25.102Z,97992.03
2023-01-17T00:36:35.173Z,97993.91
2023-01-17T00:39:47.425Z,97992.88
2023-01-17T00:42:52.988Z,97989.37
2023-01-17T00:46:29.744Z,97995.22
2023-01-17T00:50:11.862Z,97989.69
2023-01-17T00:53:40.810Z,97988.72
2023-01-17T00:57:09.195Z,97986.66
2023-01-17T01:00:37.929Z,97988.28
2023-01-17T01:04:16.519Z,97990.22
2023-01-17T01:11:35.043Z,97996.63
2023-01-17T01:15:04.825Z,97986.84
2023-01-17T01:22:33.875Z,97970.62
2023-01-17T01:26:03.266Z,97994.59
2023-01-17T01:29:31.156Z,98005.22
2023-01-17T01:32:56.896Z,97999.06
2023-01-17T01:35:59.186Z,98006.25
2023-01-17T01:39:01.352Z,98014.66
2023-01-17T01:42:03.531Z,98010.03
2023-01-17T01:45:18.374Z,98020.78
2023-01-17T01:48:31.999Z,98025.25
2023-01-17T01:51:48.505Z,98013.31
2023-01-17T01:55:08.192Z,98013.53
2023-01-17T01:58:18.819Z,97984.84
2023-01-17T02:01:21.179Z,97982.19
2023-01-17T02:04:25.468Z,97965.87
2023-01-17T02:07:36.670Z,97971.16
2023-01-17T02:10:41.148Z,97957.50
2023-01-17T02:13:43.662Z,97955.06
2023-01-17T02:17:10.286Z,97955.34
2023-01-17T02:20:12.443Z,97947.75
2023-01-17T02:23:35.730Z,97956.19
2023-01-17T02:27:03.636Z,97963.09
2023-01-17T02:30:41.672Z,97966.09
2023-01-17T02:33:50.704Z,97966.59
2023-01-17T02:37:01.208Z,97958.63
2023-01-17T02:40:26.545Z,97962.12
2023-01-17T02:43:28.881Z,97954.38
2023-01-17T02:46:31.412Z,97948.94
2023-01-17T02:49:33.727Z,97938.62
2023-01-17T02:53:00.929Z,97933.03
2023-01-17T02:56:08.724Z,97914.28
2023-01-17T02:59:33.591Z,97899.72
2023-01-17T03:02:49.893Z,97893.34
2023-01-17T03:06:13.562Z,97888.72
2023-01-17T03:09:17.345Z,97880.41
2023-01-17T03:12:21.181Z,97877.56
2023-01-17T03:15:23.307Z,97872.53
2023-01-17T03:18:25.513Z,97868.06
2023-01-17T03:21:27.577Z,97864.25
2023-01-17T03:24:29.820Z,97856.50
2023-01-17T03:27:32.093Z,97847.62
2023-01-17T03:30:34.365Z,97849.97
2023-01-17T03:33:36.622Z,97850.66
2023-01-17T03:36:38.894Z,97855.28
2023-01-17T03:39:41.084Z,97840.22
2023-01-17T03:42:44.786Z,97840.59
2023-01-17T03:45:52.367Z,97833.41
2023-01-17T03:48:54.766Z,97836.66
2023-01-17T03:51:57.061Z,97816.41
2023-01-17T03:54:59.694Z,97823.88
2023-01-17T03:58:02.008Z,97821.28
2023-01-17T04:01:04.365Z,97814.37
2023-01-17T04:04:06.716Z,97824.84
2023-01-17T04:07:09.436Z,97828.09
2023-01-17T04:10:12.135Z,97816.53
2023-01-17T04:13:15.251Z,97818.44
2023-01-17T04:16:18.825Z,97812.72
2023-01-17T04:19:21.592Z,97817.78
2023-01-17T04:22:23.863Z,97818.97
2023-01-17T04:25:26.572Z,97817.47
2023-01-17T04:28:30.597Z,97832.19
2023-01-17T04:31:33.337Z,97828.94
2023-01-17T04:34:35.959Z,97828.09
2023-01-17T04:37:39.597Z,97827.16
2023-01-17T04:40:41.975Z,97829.09
2023-01-17T04:43:44.666Z,97824.84
2023-01-17T04:46:47.122Z,97817.38
2023-01-17T04:49:49.859Z,97819.69
2023-01-17T04:52:52.293Z,97822.94
2023-01-17T04:55:54.828Z,97821.19
2023-01-17T04:58:58.472Z,97829.63
2023-01-17T05:02:00.832Z,97820.91
2023-01-17T05:05:03.323Z,97822.28
2023-01-17T05:08:05.792Z,97827.69
2023-01-17T05:11:08.248Z,97828.66
2023-01-17T05:14:11.374Z,97824.72
2023-01-17T05:17:13.898Z,97827.44
2023-01-17T05:20:18.578Z,97831.78
2023-01-17T05:23:22.938Z,97837.09
2023-01-17T05:26:26.095Z,97828.81
2023-01-17T05:29:29.705Z,97836.28
2023-01-17T05:32:33.985Z,97832.88
2023-01-17T05:35:37.781Z,97836.00
2023-01-17T05:38:42.685Z,97837.63
2023-01-17T05:41:49.534Z,97846.34
2023-01-17T05:44:56.530Z,97851.25
2023-01-17T05:48:14.653Z,97849.50
2023-01-17T05:51:21.446Z,97856.69
2023-01-17T05:54:27.107Z,97860.91
2023-01-17T05:57:33.471Z,97870.44
2023-01-17T06:00:37.793Z,97874.78
2023-01-17T06:03:40.274Z,97878.06
2023-01-17T06:06:42.817Z,97889.63
2023-01-17T06:09:45.807Z,97899.97
2023-01-17T06:12:48.917Z,97900.78
2023-01-17T06:15:52.765Z,97895.88
2023-01-17T06:18:56.135Z,97899.31
2023-01-17T06:21:58.813Z,97901.59
2023-01-17T06:25:02.934Z,97901.88
2023-01-17T06:28:07.076Z,97903.63
2023-01-17T06:31:10.303Z,97904.06
2023-01-17T06:34:13.406Z,97905.81
2023-01-17T06:37:16.850Z,97906.09
2023-01-17T06:40:20.327Z,97909.06
2023-01-17T06:43:22.732Z,97915.31
2023-01-17T06:46:26.157Z,97928.22
2023-01-17T06:49:32.346Z,97937.72
2023-01-17T06:52:35.662Z,97940.59
2023-01-17T06:55:41.416Z,97944.94
2023-01-17T06:58:46.059Z,97946.84
2023-01-17T07:01:49.041Z,97960.72
2023-01-17T07:04:51.833Z,97973.47
2023-01-17T07:07:55.059Z,97975.00
2023-01-17T07:11:01.781Z,97981.41
2023-01-17T07:14:07.879Z,97984.38
2023-01-17T07:17:10.851Z,97992.81
2023-01-17T07:20:14.968Z,97996.63
2023-01-17T07:23:20.720Z,98006.69
2023-01-17T07:26:25.958Z,98001.53
2023-01-17T07:29:28.780Z,98009.13
2023-01-17T07:32:46.293Z,98014.97
2023-01-17T07:35:51.284Z,98024.47
2023-01-17T07:38:58.257Z,98031.28
2023-01-17T07:42:01.491Z,98039.81
2023-01-17T07:45:05.915Z,98042.13
2023-01-17T07:48:10.835Z,98046.47
2023-01-17T07:51:20.572Z,98057.37
2023-01-17T07:54:26.261Z,98068.66
2023-01-17T07:57:33.946Z,98079.81
2023-01-17T08:00:47.112Z,98086.31
2023-01-17T08:03:55.924Z,98084.75
2023-01-17T08:07:02.511Z,98089.91
2023-01-17T08:10:07.856Z,98083.44
2023-01-17T08:13:11.955Z,98090.84
2023-01-17T08:16:19.752Z,98097.69
2023-01-17T08:19:23.113Z,98100.06
2023-01-17T08:22:28.410Z,98108.31
2023-01-17T08:25:37.796Z,98118.53
2023-01-17T08:28:45.699Z,98119.41
2023-01-17T08:31:49.520Z,98113.97
2023-01-17T08:34:56.602Z,98116.50
2023-01-17T08:38:09.575Z,98123.59
2023-01-17T08:41:34.304Z,98135.53
2023-01-17T08:44:42.774Z,98135.75
2023-01-17T08:47:48.363Z,98143.03
2023-01-17T08:50:57.747Z,98155.91
2023-01-17T08:54:01.160Z,98152.78
2023-01-17T08:57:05.842Z,98159.16
2023-01-17T09:00:29.559Z,98159.06
2023-01-17T09:03:42.032Z,98169.13
2023-01-17T09:06:46.680Z,98157.44
2023-01-17T09:10:04.613Z,98159.47
2023-01-17T09:17:59.441Z,98154.53
2023-01-17T09:21:31.127Z,98163.91
2023-01-17T09:24:36.653Z,98165.22
2023-01-17T09:31:20.617Z,98150.25
2023-01-17T09:34:27.182Z,98156.16
2023-01-17T09:37:30.734Z,98171.59
2023-01-17T09:41:10.942Z,98180.88
2023-01-17T09:45:02.817Z,98184.19
2023-01-17T09:51:47.924Z,98215.53
2023-01-17T09:55:09.344Z,98221.12
2023-01-17T09:58:44.278Z,98218.56
2023-01-17T10:02:12.056Z,98223.31
2023-01-17T10:21:51.945Z,98236.22
2023-01-17T10:25:09.777Z,98244.12
2023-01-17T10:28:35.050Z,98237.53
2023-01-17T10:32:06.485Z,98225.72
2023-01-17T10:36:05.849Z,98231.00
2023-01-17T10:39:35.551Z,98224.75
2023-01-17T10:43:20.283Z,98215.56
2023-01-17T10:47:05.703Z,98210.09
2023-01-17T10:50:34.713Z,98202.56
2023-01-17T10:54:33.251Z,98188.22
2023-01-17T10:58:22.868Z,98195.06
2023-01-17T11:01:30.331Z,98193.06
2023-01-17T11:04:39.081Z,98184.66
2023-01-17T11:08:36.710Z,98180.37
2023-01-17T11:12:05.272Z,98168.91
2023-01-17T11:15:16.351Z,98164.72
2023-01-17T11:22:29.316Z,98153.72
2023-01-17T11:26:27.270Z,98151.88
2023-01-17T11:29:40.354Z,98149.22
2023-01-17T11:33:30.827Z,98149.44
2023-01-17T11:36:56.946Z,98151.97
2023-01-17T11:44:58.568Z,98133.59
2023-01-17T11:48:42.264Z,98129.41
2023-01-17T11:52:02.210Z,98126.25
2023-01-17T11:55:06.320Z,98129.59
2023-01-17T11:58:34.621Z,98137.19
2023-01-17T12:07:03.724Z,98161.38
2023-01-17T12:11:06.373Z,98167.28
2023-01-17T12:14:57.707Z,98170.69
2023-01-17T12:18:32.776Z,98173.94
2023-01-17T12:34:08.148Z,98159.66
2023-01-17T12:45:33.528Z,98168.69
2023-01-17T12:48:51.748Z,98159.94
2023-01-17T12:52:33.816Z,98161.06
2023-01-17T12:55:48.776Z,98152.47
2023-01-17T12:59:21.587Z,98154.41
2023-01-17T13:09:19.415Z,98145.38
2023-01-17T13:12:43.216Z,98135.56
2023-01-17T13:15:54.788Z,98144.31
2023-01-17T13:19:32.323Z,98148.63
2023-01-17T13:23:19.739Z,98150.34
2023-01-17T13:27:09.875Z,98159.91
2023-01-17T13:31:05.462Z,98160.88
2023-01-17T13:34:47.163Z,98162.72
2023-01-17T13:55:00.391Z,98132.38
2023-01-17T13:59:08.011Z,98120.69
2023-01-17T14:03:09.077Z,98114.44
2023-01-17T14:13:56.571Z,98083.78
2023-01-17T14:17:41.402Z,98068.38
2023-01-17T14:21:18.527Z,98054.28
2023-01-17T14:24:35.284Z,98057.25
2023-01-17T14:28:00.496Z,98054.28
2023-01-17T14:35:25.105Z,98034.69
2023-01-17T14:38:33.172Z,98028.69
2023-01-17T14:42:00.684Z,98014.06
2023-01-17T14:45:55.243Z,98005.84
2023-01-17T14:49:25.969Z,98015.28
2023-01-17T15:03:57.066Z,97999.03
2023-01-17T15:59:29.274Z,97947.75
2023-01-17T16:03:07.418Z,97951.72
2023-01-17T16:06:35.204Z,97949.88
2023-01-17T17:29:10.447Z,97845.09
2023-01-17T17:32:12.921Z,97832.03
2023-01-17T17:35:15.343Z,97821.53
2023-01-17T17:38:17.456Z,97820.06
2023-01-17T17:41:22.807Z,97825.38
2023-01-17T17:44:25.105Z,97811.34
2023-01-17T17:47:27.174Z,97801.13
2023-01-17T17:50:29.229Z,97787.91
2023-01-17T17:53:32.272Z,97777.84
2023-01-17T17:56:35.573Z,97773.78
2023-01-17T17:59:37.661Z,97783.47
2023-01-17T18:02:39.798Z,97764.97
2023-01-17T18:05:42.652Z,97746.03
2023-01-17T18:08:44.954Z,97723.84
2023-01-17T18:11:47.221Z,97710.97
2023-01-17T18:14:49.324Z,97715.47
2023-01-17T18:17:52.530Z,97709.50
2023-01-17T18:20:54.758Z,97697.94
2023-01-17T18:24:02.091Z,97693.84
2023-01-17T18:27:04.376Z,97677.66
2023-01-17T18:30:07.283Z,97681.34
2023-01-17T18:33:10.720Z,97668.41
2023-01-17T18:36:13.842Z,97673.72
2023-01-17T18:39:18.758Z,97665.44
2023-01-17T18:42:23.190Z,97664.62
2023-01-17T18:45:25.496Z,97656.19
2023-01-17T18:48:27.968Z,97655.38
2023-01-17T18:51:32.659Z,97655.50
2023-01-17T18:54:34.867Z,97641.50
2023-01-17T18:57:37.230Z,97638.00
2023-01-17T19:00:39.368Z,97636.78
2023-01-17T19:03:43.255Z,97617.59
2023-01-17T19:06:47.480Z,97605.91
2023-01-17T19:09:49.708Z,97602.28
2023-01-17T19:12:51.801Z,97600.22
2023-01-17T19:15:59.607Z,97592.09
2023-01-17T19:19:07.159Z,97580.81
2023-01-17T19:22:09.213Z,97573.75
2023-01-17T19:25:11.245Z,97567.78
2023-01-17T19:28:13.308Z,97555.41
2023-01-17T19:31:16.787Z,97569.00
2023-01-17T19:34:19.823Z,97552.31
2023-01-17T19:37:21.896Z,97555.00
2023-01-17T19:40:24.033Z,97541.56
2023-01-17T19:43:26.147Z,97530.44
2023-01-17T19:46:28.820Z,97533.16
2023-01-17T19:49:32.206Z,97519.84
2023-01-17T19:52:38.182Z,97503.56
2023-01-17T19:55:40.487Z,97490.81
2023-01-17T19:58:44.253Z,97477.50
2023-01-17T20:01:46.428Z,97477.50
2023-01-17T20:04:48.607Z,97479.41
2023-01-17T20:07:50.784Z,97478.72
2023-01-17T20:10:53.043Z,97488.81
2023-01-17T20:13:57.133Z,97480.25
2023-01-17T20:16:59.233Z,97487.59
2023-01-17T20:20:01.518Z,97479.19
2023-01-17T20:23:05.758Z,97474.97
2023-01-17T20:26:08.780Z,97475.91
2023-01-17T20:29:14.854Z,97460.88
2023-01-17T20:32:17.267Z,97459.38
2023-01-17T20:35:19.395Z,97453.53
2023-01-17T20:38:21.449Z,97447.97
2023-01-17T20:41:25.744Z,97441.84
2023-01-17T20:44:27.807Z,97431.00
2023-01-17T20:47:29.955Z,97407.97
2023-01-17T20:50:32.346Z,97419.38
2023-01-17T20:53:35.948Z,97436.19
2023-01-17T20:56:38.519Z,97454.09
2023-01-17T20:59:41.036Z,97452.06
2023-01-17T21:02:43.175Z,97426.41
2023-01-17T21:05:45.296Z,97352.78
2023-01-17T21:08:48.129Z,97369.59
2023-01-17T21:11:51.328Z,97376.81
2023-01-17T21:14:53.727Z,97400.94
2023-01-17T21:17:56.886Z,97387.50
2023-01-17T21:21:11.981Z,97393.47
2023-01-17T21:24:19.108Z,97370.00
2023-01-17T21:27:21.701Z,97362.28
2023-01-17T21:30:24.246Z,97355.75
2023-01-17T21:33:29.319Z,97350.47
2023-01-17T21:36:34.373Z,97329.06
2023-01-17T21:39:36.576Z,97338.16
2023-01-17T21:42:38.729Z,97315.38
2023-01-17T21:45:42.007Z,97314.41
2023-01-17T21:48:44.470Z,97318.06
2023-01-17T21:51:55.520Z,97307.25
2023-01-17T21:55:16.616Z,97311.16
2023-01-17T21:58:37.369Z,97318.47
2023-01-17T22:01:40.752Z,97308.06
2023-01-17T22:04:43.125Z,97308.72
2023-01-17T22:08:05.925Z,97306.00
2023-01-17T22:11:13.379Z,97309.66
2023-01-17T22:14:15.532Z,97293.28
2023-01-17T22:17:17.576Z,97289.75
2023-01-17T22:20:21.312Z,97282.44
2023-01-17T22:23:23.708Z,97280.69
2023-01-17T22:26:28.967Z,97289.50
2023-01-17T22:29:33.463Z,97280.94
2023-01-17T22:32:36.955Z,97271.47
2023-01-17T22:35:39.130Z,97273.37
2023-01-17T22:38:42.939Z,97286.09
2023-01-17T22:41:45.121Z,97288.53
2023-01-17T22:44:47.926Z,97299.25
2023-01-17T22:47:49.960Z,97305.50
2023-01-17T22:50:57.007Z,97313.34
2023-01-17T22:54:00.631Z,97316.59
2023-01-17T22:57:03.913Z,97318.75
2023-01-17T23:00:14.698Z,97306.28
2023-01-17T23:03:17.293Z,97298.44
2023-01-17T23:06:25.697Z,97301.66
2023-01-17T23:09:28.052Z,97312.38
2023-01-17T23:12:30.493Z,97323.25
2023-01-17T23:15:56.195Z,97318.09
2023-01-17T23:19:17.310Z,97314.56
2023-01-17T23:22:28.589Z,97330.16
2023-01-17T23:25:30.696Z,97328.38
2023-01-17T23:28:32.888Z,97322.41
2023-01-17T23:31:36.663Z,97332.56
2023-01-17T23:34:38.877Z,97350.88
2023-01-17T23:37:59.648Z,97340.00
2023-01-17T23:41:25.996Z,97328.50
2023-01-17T23:44:31.752Z,97337.44
2023-01-17T23:47:33.757Z,97334.44
2023-01-17T23:50:37.271Z,97344.88
2023-01-17T23:53:43.330Z,97341.84
2023-01-17T23:56:45.454Z,97347.56
2023-01-17T23:59:47.633Z,97347.00
